sensor_id;sensor_type;location;lat;lon;timestamp;P1;durP1;ratioP1;P2;durP2;ratioP2
21305;SDS011;10812;51.838;5.838;2023-03-13T00:01:44;13.60;;;3.77;;
21305;SDS011;10812;51.838;5.838;2023-03-13T00:04:13;16.00;;;3.80;;
21305;SDS011;10812;51.838;5.838;2023-03-13T00:06:41;20.00;;;4.03;;
21305;SDS011;10812;51.838;5.838;2023-03-13T00:09:12;17.77;;;4.33;;
21305;SDS011;10812;51.838;5.838;2023-03-13T00:11:41;20.00;;;4.10;;
21305;SDS011;10812;51.838;5.838;2023-03-13T00:14:11;20.13;;;4.27;;
21305;SDS011;10812;51.838;5.838;2023-03-13T00:16:39;17.87;;;3.07;;
21305;SDS011;10812;51.838;5.838;2023-03-13T00:19:07;14.13;;;4.50;;
21305;SDS011;10812;51.838;5.838;2023-03-13T00:21:36;13.77;;;3.63;;
21305;SDS011;10812;51.838;5.838;2023-03-13T00:24:07;15.27;;;4.70;;
21305;SDS011;10812;51.838;5.838;2023-03-13T00:26:38;11.17;;;3.40;;
21305;SDS011;10812;51.838;5.838;2023-03-13T00:29:06;17.13;;;3.70;;
21305;SDS011;10812;51.838;5.838;2023-03-13T00:31:34;20.33;;;4.83;;
21305;SDS011;10812;51.838;5.838;2023-03-13T00:34:05;10.43;;;2.73;;
21305;SDS011;10812;51.838;5.838;2023-03-13T00:36:34;15.27;;;3.50;;
21305;SDS011;10812;51.838;5.838;2023-03-13T00:39:02;13.13;;;3.33;;
21305;SDS011;10812;51.838;5.838;2023-03-13T00:41:32;10.80;;;3.33;;
21305;SDS011;10812;51.838;5.838;2023-03-13T00:44:01;13.57;;;3.20;;
21305;SDS011;10812;51.838;5.838;2023-03-13T00:46:30;13.73;;;3.47;;
21305;SDS011;10812;51.838;5.838;2023-03-13T00:48:58;15.30;;;4.03;;
21305;SDS011;10812;51.838;5.838;2023-03-13T00:51:27;11.47;;;3.50;;
21305;SDS011;10812;51.838;5.838;2023-03-13T00:53:56;18.67;;;5.47;;
21305;SDS011;10812;51.838;5.838;2023-03-13T00:56:26;11.87;;;3.00;;
21305;SDS011;10812;51.838;5.838;2023-03-13T00:58:55;14.83;;;4.33;;
21305;SDS011;10812;51.838;5.838;2023-03-13T01:01:25;14.07;;;4.43;;
21305;SDS011;10812;51.838;5.838;2023-03-13T01:03:55;15.73;;;3.97;;
21305;SDS011;10812;51.838;5.838;2023-03-13T01:06:25;19.50;;;3.60;;
21305;SDS011;10812;51.838;5.838;2023-03-13T01:08:54;12.00;;;3.33;;
21305;SDS011;10812;51.838;5.838;2023-03-13T01:11:23;11.57;;;3.87;;
21305;SDS011;10812;51.838;5.838;2023-03-13T01:13:53;13.63;;;3.43;;
21305;SDS011;10812;51.838;5.838;2023-03-13T01:16:22;14.57;;;4.03;;
21305;SDS011;10812;51.838;5.838;2023-03-13T01:18:54;18.60;;;4.53;;
21305;SDS011;10812;51.838;5.838;2023-03-13T01:21:23;17.13;;;4.20;;
21305;SDS011;10812;51.838;5.838;2023-03-13T01:23:52;13.10;;;3.50;;
21305;SDS011;10812;51.838;5.838;2023-03-13T01:26:21;17.63;;;4.10;;
21305;SDS011;10812;51.838;5.838;2023-03-13T01:28:50;14.97;;;3.67;;
21305;SDS011;10812;51.838;5.838;2023-03-13T01:31:19;14.87;;;4.27;;
21305;SDS011;10812;51.838;5.838;2023-03-13T01:37:30;14.23;;;4.10;;
21305;SDS011;10812;51.838;5.838;2023-03-13T01:39:58;13.90;;;3.60;;
21305;SDS011;10812;51.838;5.838;2023-03-13T01:50:08;11.50;;;2.67;;
21305;SDS011;10812;51.838;5.838;2023-03-13T01:52:37;14.00;;;4.07;;
21305;SDS011;10812;51.838;5.838;2023-03-13T01:55:06;9.43;;;3.27;;
21305;SDS011;10812;51.838;5.838;2023-03-13T01:57:38;9.57;;;4.07;;
21305;SDS011;10812;51.838;5.838;2023-03-13T02:00:11;11.47;;;4.47;;
21305;SDS011;10812;51.838;5.838;2023-03-13T02:02:43;10.10;;;3.53;;
21305;SDS011;10812;51.838;5.838;2023-03-13T02:05:15;10.50;;;3.77;;
21305;SDS011;10812;51.838;5.838;2023-03-13T02:07:47;10.13;;;4.20;;
21305;SDS011;10812;51.838;5.838;2023-03-13T02:10:21;18.03;;;4.00;;
21305;SDS011;10812;51.838;5.838;2023-03-13T02:12:51;12.40;;;4.07;;
21305;SDS011;10812;51.838;5.838;2023-03-13T02:15:21;10.83;;;3.90;;
21305;SDS011;10812;51.838;5.838;2023-03-13T02:17:51;14.17;;;4.10;;
21305;SDS011;10812;51.838;5.838;2023-03-13T02:20:20;12.77;;;4.30;;
21305;SDS011;10812;51.838;5.838;2023-03-13T02:22:51;10.20;;;3.63;;
21305;SDS011;10812;51.838;5.838;2023-03-13T02:25:31;11.10;;;4.50;;
21305;SDS011;10812;51.838;5.838;2023-03-13T02:28:08;12.87;;;4.70;;
21305;SDS011;10812;51.838;5.838;2023-03-13T02:30:40;10.33;;;3.77;;
21305;SDS011;10812;51.838;5.838;2023-03-13T02:33:11;13.40;;;4.47;;
21305;SDS011;10812;51.838;5.838;2023-03-13T02:35:41;10.07;;;4.80;;
21305;SDS011;10812;51.838;5.838;2023-03-13T02:38:12;10.10;;;4.43;;
21305;SDS011;10812;51.838;5.838;2023-03-13T02:40:46;12.07;;;4.67;;
21305;SDS011;10812;51.838;5.838;2023-03-13T02:43:16;13.70;;;5.13;;
21305;SDS011;10812;51.838;5.838;2023-03-13T02:46:00;11.37;;;4.63;;
21305;SDS011;10812;51.838;5.838;2023-03-13T02:48:30;8.90;;;4.83;;
21305;SDS011;10812;51.838;5.838;2023-03-13T02:51:01;8.47;;;5.27;;
21305;SDS011;10812;51.838;5.838;2023-03-13T02:53:31;10.20;;;4.83;;
21305;SDS011;10812;51.838;5.838;2023-03-13T02:56:02;9.90;;;4.97;;
21305;SDS011;10812;51.838;5.838;2023-03-13T02:58:39;8.67;;;5.57;;
21305;SDS011;10812;51.838;5.838;2023-03-13T03:06:36;10.10;;;5.47;;
21305;SDS011;10812;51.838;5.838;2023-03-13T03:09:04;13.17;;;5.80;;
21305;SDS011;10812;51.838;5.838;2023-03-13T03:11:34;13.07;;;6.50;;
21305;SDS011;10812;51.838;5.838;2023-03-13T03:14:03;11.17;;;6.80;;
21305;SDS011;10812;51.838;5.838;2023-03-13T03:16:32;8.40;;;6.10;;
21305;SDS011;10812;51.838;5.838;2023-03-13T03:19:00;10.73;;;6.30;;
21305;SDS011;10812;51.838;5.838;2023-03-13T03:21:29;9.77;;;5.87;;
21305;SDS011;10812;51.838;5.838;2023-03-13T03:23:57;9.33;;;5.47;;
21305;SDS011;10812;51.838;5.838;2023-03-13T03:26:25;7.40;;;5.47;;
21305;SDS011;10812;51.838;5.838;2023-03-13T03:28:55;8.83;;;5.10;;
21305;SDS011;10812;51.838;5.838;2023-03-13T03:31:23;7.50;;;5.27;;
21305;SDS011;10812;51.838;5.838;2023-03-13T03:33:52;7.20;;;5.00;;
21305;SDS011;10812;51.838;5.838;2023-03-13T03:36:20;8.33;;;5.73;;
21305;SDS011;10812;51.838;5.838;2023-03-13T03:38:49;9.73;;;5.07;;
21305;SDS011;10812;51.838;5.838;2023-03-13T03:41:17;11.17;;;5.70;;
21305;SDS011;10812;51.838;5.838;2023-03-13T03:43:46;9.50;;;4.77;;
21305;SDS011;10812;51.838;5.838;2023-03-13T03:46:16;6.53;;;5.30;;
21305;SDS011;10812;51.838;5.838;2023-03-13T03:48:44;11.73;;;5.30;;
21305;SDS011;10812;51.838;5.838;2023-03-13T03:51:12;6.17;;;4.60;;
21305;SDS011;10812;51.838;5.838;2023-03-13T03:53:41;8.27;;;4.67;;
21305;SDS011;10812;51.838;5.838;2023-03-13T03:56:09;7.70;;;5.10;;
21305;SDS011;10812;51.838;5.838;2023-03-13T03:58:37;7.83;;;5.00;;
21305;SDS011;10812;51.838;5.838;2023-03-13T04:01:05;10.37;;;4.87;;
21305;SDS011;10812;51.838;5.838;2023-03-13T04:03:35;8.13;;;4.90;;
21305;SDS011;10812;51.838;5.838;2023-03-13T04:06:03;8.23;;;5.03;;
21305;SDS011;10812;51.838;5.838;2023-03-13T04:08:32;6.63;;;4.53;;
21305;SDS011;10812;51.838;5.838;2023-03-13T04:11:01;9.00;;;5.03;;
21305;SDS011;10812;51.838;5.838;2023-03-13T04:13:29;8.23;;;4.93;;
21305;SDS011;10812;51.838;5.838;2023-03-13T04:15:57;9.40;;;4.83;;
21305;SDS011;10812;51.838;5.838;2023-03-13T04:18:25;9.07;;;5.83;;
21305;SDS011;10812;51.838;5.838;2023-03-13T04:21:00;5.53;;;4.00;;
21305;SDS011;10812;51.838;5.838;2023-03-13T04:23:28;7.63;;;4.57;;
21305;SDS011;10812;51.838;5.838;2023-03-13T04:25:56;8.63;;;6.37;;
21305;SDS011;10812;51.838;5.838;2023-03-13T04:28:24;10.37;;;5.83;;
21305;SDS011;10812;51.838;5.838;2023-03-13T04:30:52;8.93;;;4.50;;
21305;SDS011;10812;51.838;5.838;2023-03-13T04:33:27;7.50;;;4.80;;
21305;SDS011;10812;51.838;5.838;2023-03-13T04:35:55;8.10;;;5.07;;
21305;SDS011;10812;51.838;5.838;2023-03-13T04:38:25;6.43;;;4.93;;
21305;SDS011;10812;51.838;5.838;2023-03-13T04:40:53;6.80;;;5.17;;
21305;SDS011;10812;51.838;5.838;2023-03-13T04:43:21;8.97;;;5.07;;
21305;SDS011;10812;51.838;5.838;2023-03-13T04:45:50;9.37;;;4.97;;
21305;SDS011;10812;51.838;5.838;2023-03-13T04:48:20;10.07;;;5.60;;
21305;SDS011;10812;51.838;5.838;2023-03-13T04:50:48;8.00;;;5.27;;
21305;SDS011;10812;51.838;5.838;2023-03-13T04:53:17;7.27;;;5.93;;
21305;SDS011;10812;51.838;5.838;2023-03-13T04:55:47;8.47;;;4.67;;
21305;SDS011;10812;51.838;5.838;2023-03-13T04:58:17;8.13;;;5.17;;
21305;SDS011;10812;51.838;5.838;2023-03-13T05:00:45;11.63;;;6.03;;
21305;SDS011;10812;51.838;5.838;2023-03-13T05:03:13;7.47;;;5.53;;
21305;SDS011;10812;51.838;5.838;2023-03-13T05:05:41;6.83;;;4.67;;
21305;SDS011;10812;51.838;5.838;2023-03-13T05:08:09;7.73;;;4.77;;
21305;SDS011;10812;51.838;5.838;2023-03-13T05:10:37;7.90;;;5.30;;
21305;SDS011;10812;51.838;5.838;2023-03-13T05:13:07;12.00;;;5.27;;
21305;SDS011;10812;51.838;5.838;2023-03-13T05:15:35;10.67;;;5.03;;
21305;SDS011;10812;51.838;5.838;2023-03-13T05:18:03;8.93;;;5.17;;
21305;SDS011;10812;51.838;5.838;2023-03-13T05:20:32;7.00;;;4.63;;
21305;SDS011;10812;51.838;5.838;2023-03-13T05:23:00;7.53;;;4.40;;
21305;SDS011;10812;51.838;5.838;2023-03-13T05:25:28;7.77;;;4.47;;
21305;SDS011;10812;51.838;5.838;2023-03-13T05:27:56;6.53;;;4.40;;
21305;SDS011;10812;51.838;5.838;2023-03-13T05:30:26;7.17;;;4.00;;
21305;SDS011;10812;51.838;5.838;2023-03-13T05:32:54;6.70;;;4.47;;
21305;SDS011;10812;51.838;5.838;2023-03-13T05:35:22;8.43;;;4.20;;
21305;SDS011;10812;51.838;5.838;2023-03-13T05:37:50;7.90;;;4.33;;
21305;SDS011;10812;51.838;5.838;2023-03-13T05:40:18;6.07;;;4.37;;
21305;SDS011;10812;51.838;5.838;2023-03-13T05:42:47;8.07;;;3.60;;
21305;SDS011;10812;51.838;5.838;2023-03-13T05:45:15;5.37;;;3.80;;
21305;SDS011;10812;51.838;5.838;2023-03-13T05:47:44;5.23;;;3.60;;
21305;SDS011;10812;51.838;5.838;2023-03-13T05:50:12;6.00;;;3.60;;
21305;SDS011;10812;51.838;5.838;2023-03-13T05:52:40;8.57;;;4.40;;
21305;SDS011;10812;51.838;5.838;2023-03-13T05:55:09;6.27;;;3.20;;
21305;SDS011;10812;51.838;5.838;2023-03-13T05:57:37;4.47;;;3.37;;
21305;SDS011;10812;51.838;5.838;2023-03-13T06:00:05;5.60;;;3.30;;
21305;SDS011;10812;51.838;5.838;2023-03-13T06:02:34;5.67;;;3.23;;
21305;SDS011;10812;51.838;5.838;2023-03-13T06:05:04;6.70;;;3.70;;
21305;SDS011;10812;51.838;5.838;2023-03-13T06:07:33;6.60;;;3.10;;
21305;SDS011;10812;51.838;5.838;2023-03-13T06:10:01;5.13;;;3.37;;
21305;SDS011;10812;51.838;5.838;2023-03-13T06:12:30;6.67;;;2.83;;
21305;SDS011;10812;51.838;5.838;2023-03-13T06:14:58;6.83;;;3.00;;
21305;SDS011;10812;51.838;5.838;2023-03-13T06:17:27;6.57;;;3.13;;
21305;SDS011;10812;51.838;5.838;2023-03-13T06:19:55;5.00;;;2.60;;
21305;SDS011;10812;51.838;5.838;2023-03-13T06:22:25;4.63;;;2.67;;
21305;SDS011;10812;51.838;5.838;2023-03-13T06:24:53;3.27;;;2.63;;
21305;SDS011;10812;51.838;5.838;2023-03-13T06:27:22;8.53;;;2.97;;
21305;SDS011;10812;51.838;5.838;2023-03-13T06:29:50;6.43;;;2.57;;
21305;SDS011;10812;51.838;5.838;2023-03-13T06:32:18;7.20;;;2.90;;
21305;SDS011;10812;51.838;5.838;2023-03-13T06:34:47;6.20;;;2.60;;
21305;SDS011;10812;51.838;5.838;2023-03-13T06:37:15;5.40;;;2.47;;
21305;SDS011;10812;51.838;5.838;2023-03-13T06:39:44;7.73;;;3.33;;
21305;SDS011;10812;51.838;5.838;2023-03-13T06:42:12;3.60;;;2.37;;
21305;SDS011;10812;51.838;5.838;2023-03-13T06:51:46;8.00;;;2.87;;
21305;SDS011;10812;51.838;5.838;2023-03-13T06:54:14;4.77;;;2.93;;
21305;SDS011;10812;51.838;5.838;2023-03-13T06:56:43;9.00;;;3.23;;
21305;SDS011;10812;51.838;5.838;2023-03-13T06:59:12;4.63;;;1.97;;
21305;SDS011;10812;51.838;5.838;2023-03-13T07:01:40;4.97;;;2.17;;
21305;SDS011;10812;51.838;5.838;2023-03-13T07:04:09;6.40;;;2.47;;
21305;SDS011;10812;51.838;5.838;2023-03-13T07:06:39;4.93;;;2.20;;
21305;SDS011;10812;51.838;5.838;2023-03-13T07:09:08;7.87;;;2.23;;
21305;SDS011;10812;51.838;5.838;2023-03-13T07:11:36;10.10;;;4.63;;
21305;SDS011;10812;51.838;5.838;2023-03-13T07:14:06;5.00;;;2.13;;
21305;SDS011;10812;51.838;5.838;2023-03-13T07:16:42;5.70;;;1.70;;
21305;SDS011;10812;51.838;5.838;2023-03-13T07:19:11;4.70;;;2.10;;
21305;SDS011;10812;51.838;5.838;2023-03-13T07:21:40;4.97;;;2.00;;
21305;SDS011;10812;51.838;5.838;2023-03-13T07:24:09;4.43;;;2.23;;
21305;SDS011;10812;51.838;5.838;2023-03-13T07:26:37;4.97;;;2.27;;
21305;SDS011;10812;51.838;5.838;2023-03-13T07:29:20;4.47;;;2.40;;
21305;SDS011;10812;51.838;5.838;2023-03-13T07:31:49;7.37;;;2.27;;
21305;SDS011;10812;51.838;5.838;2023-03-13T07:34:17;9.80;;;2.90;;
21305;SDS011;10812;51.838;5.838;2023-03-13T07:36:45;5.97;;;2.37;;
21305;SDS011;10812;51.838;5.838;2023-03-13T07:39:13;5.47;;;2.27;;
21305;SDS011;10812;51.838;5.838;2023-03-13T07:41:41;6.57;;;2.07;;
21305;SDS011;10812;51.838;5.838;2023-03-13T07:44:09;9.47;;;2.53;;
21305;SDS011;10812;51.838;5.838;2023-03-13T07:46:39;4.13;;;1.93;;
21305;SDS011;10812;51.838;5.838;2023-03-13T07:49:07;6.87;;;2.40;;
21305;SDS011;10812;51.838;5.838;2023-03-13T07:51:35;9.53;;;2.33;;
21305;SDS011;10812;51.838;5.838;2023-03-13T07:54:09;4.03;;;2.30;;
21305;SDS011;10812;51.838;5.838;2023-03-13T07:56:38;6.07;;;1.90;;
21305;SDS011;10812;51.838;5.838;2023-03-13T07:59:06;4.47;;;1.90;;
21305;SDS011;10812;51.838;5.838;2023-03-13T08:01:35;5.93;;;2.17;;
21305;SDS011;10812;51.838;5.838;2023-03-13T08:04:04;5.83;;;1.67;;
21305;SDS011;10812;51.838;5.838;2023-03-13T08:06:33;4.13;;;2.20;;
21305;SDS011;10812;51.838;5.838;2023-03-13T08:09:02;4.53;;;1.87;;
21305;SDS011;10812;51.838;5.838;2023-03-13T08:11:30;3.80;;;1.93;;
21305;SDS011;10812;51.838;5.838;2023-03-13T08:13:59;7.03;;;2.20;;
21305;SDS011;10812;51.838;5.838;2023-03-13T08:16:27;5.23;;;2.07;;
21305;SDS011;10812;51.838;5.838;2023-03-13T08:18:57;3.70;;;2.30;;
21305;SDS011;10812;51.838;5.838;2023-03-13T08:21:28;3.20;;;1.73;;
21305;SDS011;10812;51.838;5.838;2023-03-13T08:23:58;4.73;;;1.87;;
21305;SDS011;10812;51.838;5.838;2023-03-13T08:26:29;7.03;;;1.80;;
21305;SDS011;10812;51.838;5.838;2023-03-13T08:28:58;3.53;;;2.00;;
21305;SDS011;10812;51.838;5.838;2023-03-13T08:31:28;5.93;;;1.60;;
21305;SDS011;10812;51.838;5.838;2023-03-13T08:33:57;5.83;;;1.93;;
21305;SDS011;10812;51.838;5.838;2023-03-13T08:36:28;4.83;;;1.70;;
21305;SDS011;10812;51.838;5.838;2023-03-13T08:38:58;5.97;;;2.33;;
21305;SDS011;10812;51.838;5.838;2023-03-13T08:41:28;5.37;;;1.73;;
21305;SDS011;10812;51.838;5.838;2023-03-13T08:43:59;4.63;;;1.80;;
21305;SDS011;10812;51.838;5.838;2023-03-13T08:46:27;7.77;;;2.13;;
21305;SDS011;10812;51.838;5.838;2023-03-13T08:48:56;6.03;;;2.20;;
21305;SDS011;10812;51.838;5.838;2023-03-13T08:51:25;6.87;;;2.47;;
21305;SDS011;10812;51.838;5.838;2023-03-13T08:53:56;5.87;;;2.00;;
21305;SDS011;10812;51.838;5.838;2023-03-13T08:56:25;6.30;;;2.20;;
21305;SDS011;10812;51.838;5.838;2023-03-13T08:58:56;5.57;;;1.80;;
21305;SDS011;10812;51.838;5.838;2023-03-13T09:01:26;7.43;;;2.37;;
21305;SDS011;10812;51.838;5.838;2023-03-13T09:03:55;7.27;;;2.20;;
21305;SDS011;10812;51.838;5.838;2023-03-13T09:06:29;7.27;;;2.53;;
21305;SDS011;10812;51.838;5.838;2023-03-13T09:08:57;4.80;;;2.47;;
21305;SDS011;10812;51.838;5.838;2023-03-13T09:11:26;6.70;;;2.03;;
21305;SDS011;10812;51.838;5.838;2023-03-13T09:13:54;5.97;;;2.10;;
21305;SDS011;10812;51.838;5.838;2023-03-13T09:16:25;4.87;;;1.93;;
21305;SDS011;10812;51.838;5.838;2023-03-13T09:18:55;5.40;;;2.20;;
21305;SDS011;10812;51.838;5.838;2023-03-13T09:21:24;4.63;;;1.77;;
21305;SDS011;10812;51.838;5.838;2023-03-13T09:23:55;6.20;;;2.30;;
21305;SDS011;10812;51.838;5.838;2023-03-13T09:26:24;3.17;;;1.80;;
21305;SDS011;10812;51.838;5.838;2023-03-13T09:28:53;7.60;;;2.37;;
21305;SDS011;10812;51.838;5.838;2023-03-13T09:31:22;3.70;;;1.50;;
21305;SDS011;10812;51.838;5.838;2023-03-13T09:33:51;4.30;;;1.70;;
21305;SDS011;10812;51.838;5.838;2023-03-13T09:36:21;4.13;;;1.83;;
21305;SDS011;10812;51.838;5.838;2023-03-13T09:38:50;3.00;;;1.30;;
21305;SDS011;10812;51.838;5.838;2023-03-13T09:41:21;5.72;;;1.65;;
21305;SDS011;10812;51.838;5.838;2023-03-13T09:43:52;1.75;;;1.50;;
21305;SDS011;10812;51.838;5.838;2023-03-13T09:46:30;3.97;;;1.48;;
21305;SDS011;10812;51.838;5.838;2023-03-13T09:49:03;4.10;;;1.43;;
21305;SDS011;10812;51.838;5.838;2023-03-13T09:51:37;3.67;;;1.50;;
21305;SDS011;10812;51.838;5.838;2023-03-13T09:54:08;2.37;;;1.30;;
21305;SDS011;10812;51.838;5.838;2023-03-13T09:56:49;4.23;;;1.50;;
21305;SDS011;10812;51.838;5.838;2023-03-13T09:59:22;2.17;;;1.27;;
21305;SDS011;10812;51.838;5.838;2023-03-13T10:01:56;2.87;;;1.10;;
21305;SDS011;10812;51.838;5.838;2023-03-13T10:04:28;2.90;;;1.70;;
21305;SDS011;10812;51.838;5.838;2023-03-13T10:07:01;4.97;;;1.77;;
21305;SDS011;10812;51.838;5.838;2023-03-13T10:09:30;3.87;;;1.70;;
21305;SDS011;10812;51.838;5.838;2023-03-13T10:12:03;3.00;;;1.73;;
21305;SDS011;10812;51.838;5.838;2023-03-13T10:14:40;4.40;;;1.70;;
21305;SDS011;10812;51.838;5.838;2023-03-13T10:17:13;3.57;;;1.40;;
21305;SDS011;10812;51.838;5.838;2023-03-13T10:19:53;4.03;;;1.50;;
21305;SDS011;10812;51.838;5.838;2023-03-13T10:22:25;3.60;;;1.63;;
21305;SDS011;10812;51.838;5.838;2023-03-13T10:24:57;6.47;;;2.67;;
21305;SDS011;10812;51.838;5.838;2023-03-13T10:27:31;3.23;;;1.40;;
21305;SDS011;10812;51.838;5.838;2023-03-13T10:30:09;2.47;;;1.37;;
21305;SDS011;10812;51.838;5.838;2023-03-13T10:32:51;5.40;;;1.60;;
21305;SDS011;10812;51.838;5.838;2023-03-13T10:35:21;4.73;;;1.43;;
21305;SDS011;10812;51.838;5.838;2023-03-13T10:37:59;2.87;;;1.30;;
21305;SDS011;10812;51.838;5.838;2023-03-13T10:40:29;2.07;;;1.30;;
21305;SDS011;10812;51.838;5.838;2023-03-13T10:43:03;1.17;;;0.90;;
21305;SDS011;10812;51.838;5.838;2023-03-13T10:45:33;2.50;;;1.07;;
21305;SDS011;10812;51.838;5.838;2023-03-13T10:48:03;1.30;;;1.10;;
21305;SDS011;10812;51.838;5.838;2023-03-13T10:50:41;3.40;;;1.27;;
21305;SDS011;10812;51.838;5.838;2023-03-13T10:53:21;5.13;;;1.60;;
21305;SDS011;10812;51.838;5.838;2023-03-13T10:55:52;1.87;;;1.00;;
21305;SDS011;10812;51.838;5.838;2023-03-13T10:58:24;1.25;;;1.08;;
21305;SDS011;10812;51.838;5.838;2023-03-13T11:01:07;1.97;;;1.23;;
21305;SDS011;10812;51.838;5.838;2023-03-13T11:03:43;4.80;;;1.35;;
21305;SDS011;10812;51.838;5.838;2023-03-13T11:06:28;1.40;;;1.00;;
21305;SDS011;10812;51.838;5.838;2023-03-13T11:08:58;3.60;;;1.10;;
21305;SDS011;10812;51.838;5.838;2023-03-13T11:11:41;3.40;;;1.33;;
21305;SDS011;10812;51.838;5.838;2023-03-13T11:14:16;2.45;;;1.50;;
21305;SDS011;10812;51.838;5.838;2023-03-13T11:16:47;4.18;;;1.02;;
21305;SDS011;10812;51.838;5.838;2023-03-13T11:22:24;2.73;;;1.13;;
21305;SDS011;10812;51.838;5.838;2023-03-13T11:25:12;2.40;;;1.17;;
21305;SDS011;10812;51.838;5.838;2023-03-13T11:27:53;4.35;;;1.58;;
21305;SDS011;10812;51.838;5.838;2023-03-13T11:30:43;1.77;;;1.00;;
21305;SDS011;10812;51.838;5.838;2023-03-13T11:33:21;2.50;;;1.20;;
21305;SDS011;10812;51.838;5.838;2023-03-13T11:35:58;2.93;;;1.37;;
21305;SDS011;10812;51.838;5.838;2023-03-13T11:38:31;3.13;;;1.00;;
21305;SDS011;10812;51.838;5.838;2023-03-13T11:41:05;2.13;;;1.10;;
21305;SDS011;10812;51.838;5.838;2023-03-13T11:43:49;1.60;;;1.10;;
21305;SDS011;10812;51.838;5.838;2023-03-13T11:46:34;2.53;;;1.30;;
21305;SDS011;10812;51.838;5.838;2023-03-13T11:49:24;1.42;;;0.80;;
21305;SDS011;10812;51.838;5.838;2023-03-13T11:52:15;3.17;;;1.20;;
21305;SDS011;10812;51.838;5.838;2023-03-13T11:54:55;4.38;;;1.10;;
21305;SDS011;10812;51.838;5.838;2023-03-13T11:57:29;1.15;;;0.65;;
21305;SDS011;10812;51.838;5.838;2023-03-13T12:00:13;1.67;;;1.20;;
21305;SDS011;10812;51.838;5.838;2023-03-13T12:02:50;1.63;;;0.98;;
21305;SDS011;10812;51.838;5.838;2023-03-13T12:05:22;1.80;;;0.90;;
21305;SDS011;10812;51.838;5.838;2023-03-13T12:07:55;4.13;;;1.10;;
21305;SDS011;10812;51.838;5.838;2023-03-13T12:10:26;0.80;;;0.70;;
21305;SDS011;10812;51.838;5.838;2023-03-13T12:13:00;3.55;;;1.20;;
21305;SDS011;10812;51.838;5.838;2023-03-13T12:15:33;2.28;;;0.85;;
21305;SDS011;10812;51.838;5.838;2023-03-13T12:18:08;3.03;;;1.25;;
21305;SDS011;10812;51.838;5.838;2023-03-13T12:20:46;1.75;;;0.93;;
21305;SDS011;10812;51.838;5.838;2023-03-13T12:23:23;2.63;;;1.05;;
21305;SDS011;10812;51.838;5.838;2023-03-13T12:25:57;2.97;;;1.20;;
21305;SDS011;10812;51.838;5.838;2023-03-13T12:28:32;2.10;;;1.27;;
21305;SDS011;10812;51.838;5.838;2023-03-13T12:31:10;4.00;;;1.40;;
21305;SDS011;10812;51.838;5.838;2023-03-13T12:33:47;3.53;;;1.25;;
21305;SDS011;10812;51.838;5.838;2023-03-13T12:36:21;5.18;;;1.58;;
21305;SDS011;10812;51.838;5.838;2023-03-13T12:38:55;2.60;;;1.00;;
21305;SDS011;10812;51.838;5.838;2023-03-13T12:41:32;2.00;;;1.10;;
21305;SDS011;10812;51.838;5.838;2023-03-13T12:44:07;4.50;;;1.48;;
21305;SDS011;10812;51.838;5.838;2023-03-13T12:46:40;4.00;;;1.10;;
21305;SDS011;10812;51.838;5.838;2023-03-13T12:52:17;1.73;;;1.33;;
21305;SDS011;10812;51.838;5.838;2023-03-13T12:58:05;1.77;;;0.70;;
21305;SDS011;10812;51.838;5.838;2023-03-13T13:00:40;1.98;;;0.93;;
21305;SDS011;10812;51.838;5.838;2023-03-13T13:03:17;3.88;;;0.90;;
21305;SDS011;10812;51.838;5.838;2023-03-13T13:08:37;6.25;;;1.48;;
21305;SDS011;10812;51.838;5.838;2023-03-13T13:20:31;2.05;;;1.35;;
21305;SDS011;10812;51.838;5.838;2023-03-13T13:32:32;2.67;;;0.80;;
21305;SDS011;10812;51.838;5.838;2023-03-13T13:35:04;1.48;;;0.82;;
21305;SDS011;10812;51.838;5.838;2023-03-13T13:37:45;2.17;;;0.75;;
21305;SDS011;10812;51.838;5.838;2023-03-13T13:40:20;3.53;;;0.80;;
21305;SDS011;10812;51.838;5.838;2023-03-13T13:42:52;2.95;;;0.75;;
21305;SDS011;10812;51.838;5.838;2023-03-13T13:45:23;1.60;;;0.70;;
21305;SDS011;10812;51.838;5.838;2023-03-13T13:48:12;5.15;;;1.08;;
21305;SDS011;10812;51.838;5.838;2023-03-13T13:53:49;5.18;;;0.85;;
21305;SDS011;10812;51.838;5.838;2023-03-13T13:56:29;3.97;;;1.10;;
21305;SDS011;10812;51.838;5.838;2023-03-13T13:59:03;2.40;;;0.88;;
21305;SDS011;10812;51.838;5.838;2023-03-13T14:01:43;2.78;;;0.98;;
21305;SDS011;10812;51.838;5.838;2023-03-13T14:04:12;2.13;;;0.90;;
21305;SDS011;10812;51.838;5.838;2023-03-13T14:06:43;3.80;;;0.73;;
21305;SDS011;10812;51.838;5.838;2023-03-13T14:09:18;1.92;;;0.80;;
21305;SDS011;10812;51.838;5.838;2023-03-13T14:11:57;2.65;;;0.70;;
21305;SDS011;10812;51.838;5.838;2023-03-13T14:14:25;4.07;;;1.27;;
21305;SDS011;10812;51.838;5.838;2023-03-13T14:16:53;3.10;;;0.90;;
21305;SDS011;10812;51.838;5.838;2023-03-13T14:19:24;1.40;;;0.75;;
21305;SDS011;10812;51.838;5.838;2023-03-13T14:21:59;3.10;;;0.90;;
21305;SDS011;10812;51.838;5.838;2023-03-13T14:24:28;2.60;;;0.60;;
21305;SDS011;10812;51.838;5.838;2023-03-13T14:26:57;2.95;;;1.15;;
21305;SDS011;10812;51.838;5.838;2023-03-13T14:29:26;2.20;;;1.13;;
21305;SDS011;10812;51.838;5.838;2023-03-13T14:31:54;2.97;;;0.90;;
21305;SDS011;10812;51.838;5.838;2023-03-13T14:34:24;4.03;;;1.05;;
21305;SDS011;10812;51.838;5.838;2023-03-13T14:36:58;3.03;;;0.90;;
21305;SDS011;10812;51.838;5.838;2023-03-13T14:39:43;2.42;;;1.15;;
21305;SDS011;10812;51.838;5.838;2023-03-13T14:42:15;2.92;;;0.88;;
21305;SDS011;10812;51.838;5.838;2023-03-13T14:44:45;1.42;;;0.98;;
21305;SDS011;10812;51.838;5.838;2023-03-13T14:47:18;4.97;;;1.55;;
21305;SDS011;10812;51.838;5.838;2023-03-13T14:49:53;3.03;;;1.45;;
21305;SDS011;10812;51.838;5.838;2023-03-13T14:52:24;2.90;;;0.90;;
21305;SDS011;10812;51.838;5.838;2023-03-13T14:54:54;4.00;;;1.40;;
21305;SDS011;10812;51.838;5.838;2023-03-13T14:57:25;2.50;;;1.42;;
21305;SDS011;10812;51.838;5.838;2023-03-13T14:59:54;4.88;;;1.75;;
21305;SDS011;10812;51.838;5.838;2023-03-13T15:02:44;2.15;;;0.75;;
21305;SDS011;10812;51.838;5.838;2023-03-13T15:07:59;4.32;;;1.40;;
21305;SDS011;10812;51.838;5.838;2023-03-13T15:10:30;13.02;;;6.70;;
21305;SDS011;10812;51.838;5.838;2023-03-13T15:13:12;3.85;;;1.70;;
21305;SDS011;10812;51.838;5.838;2023-03-13T15:15:42;6.50;;;2.38;;
21305;SDS011;10812;51.838;5.838;2023-03-13T15:18:18;4.30;;;1.25;;
21305;SDS011;10812;51.838;5.838;2023-03-13T15:20:48;5.90;;;2.17;;
21305;SDS011;10812;51.838;5.838;2023-03-13T15:23:18;3.13;;;0.80;;
21305;SDS011;10812;51.838;5.838;2023-03-13T15:25:47;3.40;;;1.45;;
21305;SDS011;10812;51.838;5.838;2023-03-13T15:28:17;10.88;;;4.78;;
21305;SDS011;10812;51.838;5.838;2023-03-13T15:30:47;4.80;;;1.80;;
21305;SDS011;10812;51.838;5.838;2023-03-13T15:33:18;2.77;;;1.10;;
21305;SDS011;10812;51.838;5.838;2023-03-13T15:35:48;3.40;;;1.38;;
21305;SDS011;10812;51.838;5.838;2023-03-13T15:38:18;2.83;;;0.95;;
21305;SDS011;10812;51.838;5.838;2023-03-13T15:40:48;1.97;;;1.33;;
21305;SDS011;10812;51.838;5.838;2023-03-13T15:43:17;2.40;;;0.98;;
21305;SDS011;10812;51.838;5.838;2023-03-13T15:45:46;2.00;;;1.17;;
21305;SDS011;10812;51.838;5.838;2023-03-13T15:48:19;2.47;;;1.17;;
21305;SDS011;10812;51.838;5.838;2023-03-13T15:50:48;4.47;;;1.67;;
21305;SDS011;10812;51.838;5.838;2023-03-13T15:53:17;5.07;;;1.02;;
21305;SDS011;10812;51.838;5.838;2023-03-13T15:55:49;3.87;;;1.30;;
21305;SDS011;10812;51.838;5.838;2023-03-13T15:58:19;2.10;;;1.10;;
21305;SDS011;10812;51.838;5.838;2023-03-13T16:00:48;3.63;;;1.40;;
21305;SDS011;10812;51.838;5.838;2023-03-13T16:03:18;2.93;;;1.10;;
21305;SDS011;10812;51.838;5.838;2023-03-13T16:05:50;3.03;;;1.00;;
21305;SDS011;10812;51.838;5.838;2023-03-13T16:08:20;4.80;;;1.30;;
21305;SDS011;10812;51.838;5.838;2023-03-13T16:11:00;3.87;;;1.20;;